Latest Weather Observations for Fitzroy Crossing

IDW60801

Issued at 9:02 pm WST Wednesday 10 February 2016 (issued every 30 minutes, with the page automatically refreshed every 10 minutes)

About weather observations | Map of weather stations | Latest weather observations for WA | Other Formats
Station Details ID: 003093 Name: FITZROY CROSSING AERO Lat: -18.18 Lon: 125.56 Height: 114.5 m
Data from the previous 72 hours. | See also: Recent months at Fitzroy Crossing
Date/Time
WST
Temp
°C
App
Temp
°C
Dew
Point
Rel
Hum
%
Delta-T
°C
Wind Press
QNH
hPa
Press
MSL
hPa
Rain
since 9 am
mm
Dir
 
Spd
km/h
Gust
km/h
Spd
kts
Gust
kts
10/09:00pm 30.2 35.4 22.9 65 5.0 CALM 0 0 0 0 1007.0 1006.1 0.0
10/08:30pm 31.4 36.0 21.8 56 6.5 CALM 0 0 0 0 1006.7 1005.8 0.0
10/08:00pm 31.8 35.4 21.3 53 7.1 ESE 4 9 2 5 1006.5 1005.6 0.0
10/07:30pm 32.6 36.6 20.5 49 8.1 CALM 0 0 0 0 1006.2 1005.3 0.0
10/07:00pm 34.2 38.2 20.6 45 9.2 CALM 0 0 0 0 1005.7 1004.8 0.0
10/06:30pm 35.3 37.3 19.2 38 10.7 NNW 7 9 4 5 1005.1 1004.2 0.0
10/06:00pm 36.6 39.6 20.8 39 10.8 NW 6 9 3 5 1004.5 1003.6 0.0
10/05:30pm 38.7 41.1 20.0 33 12.6 NNW 7 9 4 5 1004.3 1003.4 0.0
10/05:00pm 39.4 39.6 15.7 24 15.2 N 9 11 5 6 1004.1 1003.2 0.0
10/04:30pm 39.9 39.0 12.7 20 16.7 NNE 9 13 5 7 1004.1 1003.2 0.0
10/04:00pm 40.2 39.4 12.9 20 16.9 N 9 15 5 8 1004.1 1003.2 0.0
10/03:30pm 40.5 40.8 16.0 24 15.8 NNW 9 13 5 7 1004.2 1003.3 0.0
10/03:00pm 41.1 41.7 15.8 22 16.3 NW 7 11 4 6 1004.5 1003.6 0.0
10/02:30pm 40.4 41.0 15.2 22 16.1 NNW 6 9 3 5 1005.0 1004.1 0.0
10/02:00pm 40.4 40.4 15.2 22 16.1 NW 9 15 5 8 1005.3 1004.4 0.0
10/01:30pm 41.2 42.1 16.6 24 16.0 NW 7 17 4 9 1005.5 1004.6 0.0
10/01:00pm 39.7 41.0 17.2 27 14.7 NNW 6 9 3 5 1006.0 1005.1 0.0
10/12:30pm 39.9 40.6 16.1 24 15.3 SW 7 13 4 7 1006.4 1005.5 0.0
10/12:00pm 38.8 40.4 19.1 31 13.2 S 9 19 5 10 1006.8 1005.9 0.0
10/11:30am 38.5 40.6 19.4 33 12.8 SW 7 15 4 8 1007.4 1006.5 0.0
10/11:00am 37.8 40.7 21.0 37 11.5 SW 7 13 4 7 1007.8 1006.9 0.0
10/10:30am 36.6 39.0 21.6 41 10.3 WNW 11 17 6 9 1008.1 1007.2 0.0
10/10:00am 35.8 39.2 22.7 46 9.1 WSW 9 17 5 9 1008.3 1007.4 0.0
10/09:30am 35.4 38.4 22.7 47 8.8 W 11 17 6 9 1008.6 1007.7 0.0
10/09:00am 34.0 37.0 22.7 51 7.8 W 11 15 6 8 1008.9 1008.0 0.0
10/08:30am 33.5 35.3 22.6 53 7.5 W 17 24 9 13 1009.0 1008.1 0.0
10/08:00am 32.8 34.8 22.9 56 6.9 WSW 17 22 9 12 1008.8 1007.9 0.0
10/07:30am 31.6 33.5 23.4 61 5.7 WNW 19 26 10 14 1008.7 1007.8 0.0
10/07:00am 30.4 32.7 22.8 64 5.2 WNW 15 20 8 11 1008.6 1007.7 0.0
10/06:30am 28.5 32.1 22.3 69 4.2 W 7 11 4 6 1008.5 1007.6 0.0
10/06:00am 26.1 29.0 21.7 77 2.9 WSW 9 11 5 6 1008.4 1007.5 0.0
10/05:30am 26.6 28.4 21.1 72 3.7 WNW 13 15 7 8 1008.2 1007.3 0.0
10/05:00am 26.9 30.6 20.7 69 4.1 N 2 7 1 4 1008.4 1007.5 0.0
10/04:30am 26.9 29.2 20.7 69 4.1 N 9 11 5 6 1007.9 1007.0 0.0
10/04:00am 26.6 28.6 20.7 70 3.9 N 11 13 6 7 1007.7 1006.8 0.0
10/03:30am 27.7 30.3 20.5 65 4.8 NW 7 9 4 5 1007.4 1006.5 0.0
10/03:00am 28.1 30.4 20.6 63 5.0 NW 9 11 5 6 1007.1 1006.2 0.0
10/02:30am 27.8 30.4 20.4 64 4.9 WSW 7 9 4 5 1007.3 1006.4 0.0
10/02:00am 28.2 30.1 20.5 63 5.1 NW 11 15 6 8 1007.0 1006.1 0.0
10/01:30am 28.2 30.3 20.2 62 5.3 WNW 9 11 5 6 1007.2 1006.3 0.0
10/01:00am 28.2 30.3 20.2 62 5.3 NW 9 11 5 6 1007.3 1006.4 0.0
10/12:30am 29.0 30.6 19.9 58 6.0 WNW 11 15 6 8 1007.7 1006.8 0.0
10/12:00am 29.4 30.9 19.7 56 6.4 NW 11 19 6 10 1008.0 1007.1 0.0
 
Date/Time
WST
Temp
°C
App
Temp
°C
Dew
Point
Rel
Hum
%
Delta-T
°C
Wind Press
QNH
hPa
Press
MSL
hPa
Rain
since 9 am
mm
Dir
 
Spd
km/h
Gust
km/h
Spd
kts
Gust
kts
09/11:30pm 28.7 31.5 20.4 60 5.5 N 6 7 3 4 1007.8 1006.9 0.0
09/11:00pm 30.0 33.0 20.8 57 6.2 NNE 6 7 3 4 1007.9 1007.0 0.0
09/10:30pm 30.7 33.2 19.1 50 7.6 SE 4 7 2 4 1007.9 1007.0 0.0
09/10:00pm 31.5 32.7 17.4 43 9.0 SE 7 7 4 4 1007.9 1007.0 0.0
09/09:30pm 32.1 33.1 16.8 40 9.7 SE 7 7 4 4 1007.8 1006.9 0.0
09/09:00pm 32.1 33.9 18.7 45 8.8 SE 7 9 4 5 1007.7 1006.8 0.0
09/08:30pm 32.9 34.4 17.5 39 9.9 ESE 6 7 3 4 1007.5 1006.6 0.0
09/08:00pm 33.4 35.2 18.7 41 9.6 ESE 7 9 4 5 1007.3 1006.4 0.0
09/07:30pm 34.2 35.6 17.4 36 10.8 ESE 6 7 3 4 1006.8 1005.9 0.0
09/07:00pm 34.5 36.2 18.5 38 10.5 ESE 7 7 4 4 1006.4 1005.5 0.0
09/06:30pm 35.8 37.8 16.0 30 12.6 CALM 0 0 0 0 1006.0 1005.1 0.0
09/06:00pm 38.2 39.5 14.1 24 15.1 CALM 0 0 0 0 1005.8 1004.9 0.0
09/05:30pm 39.7 40.4 13.3 21 16.4 SE 2 7 1 4 1005.7 1004.8 0.0
09/05:00pm 40.1 38.7 12.1 19 17.2 ESE 11 17 6 9 1005.6 1004.7 0.0
09/04:30pm 40.5 38.9 11.6 18 17.6 SE 11 17 6 9 1005.5 1004.6 0.0
09/04:00pm 40.8 39.5 12.6 19 17.4 ESE 11 19 6 10 1005.6 1004.7 0.0
09/03:30pm 41.1 39.5 12.9 19 17.5 E 13 22 7 12 1005.5 1004.6 0.0
09/03:00pm 41.3 40.3 12.2 18 17.9 ENE 9 17 5 9 1005.8 1004.9 0.0
09/02:30pm 41.3 39.1 12.2 18 17.9 E 15 24 8 13 1006.2 1005.3 0.0
09/02:00pm 40.8 39.2 14.9 22 16.5 E 17 32 9 17 1006.4 1005.5 0.0
09/01:30pm 40.7 38.0 11.7 18 17.7 ESE 17 26 9 14 1006.9 1006.0 0.0
09/01:00pm 39.7 38.1 14.0 22 16.1 E 15 24 8 13 1007.3 1006.4 0.0
09/12:30pm 40.3 38.7 13.8 21 16.6 ESE 15 28 8 15 1007.8 1006.9 0.0
09/12:00pm 39.3 38.2 14.3 22 15.7 E 13 24 7 13 1008.2 1007.3 0.0
09/11:30am 39.3 39.2 15.0 24 15.4 E 9 19 5 10 1008.6 1007.7 0.0
09/11:00am 39.0 39.4 15.4 25 15.1 ENE 7 13 4 7 1009.0 1008.1 0.0
09/10:30am 38.4 39.2 17.2 28 13.8 ESE 9 15 5 8 1009.3 1008.4 0.0
09/10:00am 37.8 39.1 17.2 29 13.4 ESE 6 13 3 7 1009.6 1008.7 0.0
09/09:30am 36.2 37.8 18.3 34 11.8 SE 7 11 4 6 1009.8 1008.9 0.0
09/09:00am 35.4 37.3 18.9 37 10.9 SSE 7 13 4 7 1010.0 1009.1 0.0
09/08:30am 34.5 35.8 18.5 38 10.5 ESE 9 13 5 7 1010.0 1009.1 0.0
09/08:00am 33.5 35.1 19.2 43 9.4 ESE 9 11 5 6 1010.0 1009.1 0.0
09/07:30am 33.0 34.8 19.5 45 8.9 SE 9 11 5 6 1009.9 1009.0 0.0
09/07:00am 31.7 33.4 19.3 47 8.2 SE 9 11 5 6 1009.6 1008.7 0.0
09/06:30am 30.1 32.7 20.1 55 6.6 E 6 9 3 5 1009.4 1008.5 0.0
09/06:00am 29.5 33.4 20.4 58 6.0 CALM 0 7 0 4 1008.9 1008.0 0.0
09/05:30am 29.1 32.3 18.8 53 6.7 CALM 0 0 0 0 1008.3 1007.4 0.0
09/05:00am 29.2 32.1 18.3 51 7.0 CALM 0 0 0 0 1008.0 1007.1 0.0
09/04:30am 28.6 31.7 18.7 55 6.4 CALM 0 0 0 0 1007.8 1006.9 0.0
09/04:00am 28.7 30.6 18.5 54 6.6 NW 6 7 3 4 1007.6 1006.7 0.0
09/03:30am 29.2 29.0 17.7 50 7.3 N 15 19 8 10 1007.6 1006.7 0.0
09/03:00am 30.5 29.6 16.9 44 8.6 N 17 22 9 12 1007.8 1006.9 0.0
09/02:30am 31.7 30.5 16.0 38 9.8 SE 17 28 9 15 1008.6 1007.7 0.0
09/02:00am 30.9 29.9 16.5 42 9.1 S 17 20 9 11 1008.9 1008.0 0.0
09/01:30am 31.0 29.7 17.3 43 8.7 ESE 20 30 11 16 1009.1 1008.2 0.0
09/01:00am 31.9 30.9 16.6 39 9.7 ESE 17 30 9 16 1009.0 1008.1 0.0
09/12:30am 30.5 32.1 18.2 47 7.9 S 7 11 4 6 1008.6 1007.7 0.0
09/12:00am 31.2 33.1 16.8 42 9.1 W 2 7 1 4 1008.6 1007.7 0.0
 
Date/Time
WST
Temp
°C
App
Temp
°C
Dew
Point
Rel
Hum
%
Delta-T
°C
Wind Press
QNH
hPa
Press
MSL
hPa
Rain
since 9 am
mm
Dir
 
Spd
km/h
Gust
km/h
Spd
kts
Gust
kts
08/11:30pm 32.6 34.6 16.0 36 10.4 CALM 0 0 0 0 1008.6 1007.7 0.0
08/11:00pm 32.3 33.0 17.0 40 9.8 S 9 11 5 6 1008.9 1008.0 0.0
08/10:30pm 32.6 33.9 17.6 40 9.7 S 7 11 4 6 1009.0 1008.1 0.0
08/10:00pm 32.3 32.4 17.4 41 9.6 SSW 13 22 7 12 1008.9 1008.0 0.0
08/09:30pm 33.1 34.0 16.0 35 10.8 NE 6 7 3 4 1008.3 1007.4 0.0
08/09:00pm 33.9 34.3 15.4 33 11.6 NE 7 9 4 5 1007.8 1006.9 0.0
08/08:30pm 34.9 34.2 15.3 31 12.3 NNE 13 19 7 10 1007.4 1006.5 0.0
08/08:00pm 31.9 34.7 20.8 51 7.5 ENE 7 11 4 6 1007.2 1006.3 0.0
08/07:30pm 32.9 35.3 19.7 45 8.8 N 6 7 3 4 1006.7 1005.8 0.0
08/07:00pm 33.6 37.5 20.4 46 8.9 CALM 0 0 0 0 1006.4 1005.5 0.0
08/06:30pm 34.2 36.9 20.2 43 9.4 NNW 6 9 3 5 1006.0 1005.1 0.0
08/06:00pm 36.2 38.4 19.2 37 11.3 N 6 7 3 4 1005.8 1004.9 0.0
08/05:30pm 38.8 39.0 14.6 24 15.2 N 7 9 4 5 1005.6 1004.7 0.0
08/05:00pm 40.0 40.5 14.9 22 16.0 NNW 6 11 3 6 1005.5 1004.6 0.0
08/04:30pm 39.5 39.1 13.1 21 16.3 NE 7 13 4 7 1005.5 1004.6 0.0
08/04:00pm 39.7 38.4 12.5 20 16.7 ENE 11 19 6 10 1005.6 1004.7 0.0
08/03:30pm 40.5 40.2 13.2 20 17.0 E 7 22 4 12 1005.7 1004.8 0.0
08/03:00pm 40.2 39.8 12.9 20 16.9 ESE 7 24 4 13 1005.9 1005.0 0.0
08/02:30pm 39.9 37.9 12.7 20 16.7 E 15 24 8 13 1006.1 1005.2 0.0
08/02:00pm 40.1 39.3 15.0 23 16.0 ENE 13 32 7 17 1006.5 1005.6 0.0
08/01:30pm 39.7 39.3 14.0 22 16.1 E 9 19 5 10 1006.8 1005.9 0.0
08/01:00pm 40.0 38.0 14.9 22 16.0 ESE 19 28 10 15 1007.1 1006.2 0.0
08/12:30pm 39.6 38.8 15.2 23 15.5 E 13 22 7 12 1007.6 1006.7 0.0
08/12:00pm 38.5 38.1 16.2 27 14.4 NE 13 20 7 11 1008.1 1007.2 0.0
08/11:30am 37.8 38.1 16.1 27 13.9 NNE 9 15 5 8 1008.5 1007.6 0.0
08/11:00am 37.8 39.3 16.7 29 13.6 SW 4 11 2 6 1008.9 1008.0 0.0
08/10:30am 36.7 37.5 15.8 29 13.3 SE 6 11 3 6 1009.2 1008.3 0.0
08/10:00am 35.8 37.8 18.8 36 11.2 W 6 9 3 5 1009.3 1008.4 0.0
08/09:30am 34.3 37.2 19.9 42 9.6 WNW 4 9 2 5 1009.4 1008.5 0.0
08/09:00am 32.9 36.2 21.4 50 7.8 NNW 6 9 3 5 1009.6 1008.7 0.0
08/08:30am 31.7 34.9 21.2 53 7.1 NW 6 9 3 5 1009.6 1008.7 0.0
08/08:00am 31.2 35.7 23.0 61 5.7 NE 4 9 2 5 1009.6 1008.7 0.0
08/07:30am 29.3 32.4 23.5 71 4.0 N 13 15 7 8 1009.4 1008.5 0.0
08/07:00am 27.6 30.4 23.6 79 2.8 NNW 15 19 8 10 1009.2 1008.3 0.0
08/06:30am 26.2 29.8 23.7 86 1.7 NW 11 13 6 7 1008.9 1008.0 0.0
08/06:00am 23.5 25.7 20.4 83 2.0 NW 9 13 5 7 1008.8 1007.9 0.0
08/05:30am 22.7 24.1 18.7 78 2.5 NW 9 11 5 6 1008.7 1007.8 0.0
08/05:00am 23.3 23.8 17.5 70 3.6 NNW 11 13 6 7 1008.6 1007.7 0.0
08/04:30am 24.7 27.5 17.9 66 4.3 CALM 0 0 0 0 1008.6 1007.7 0.0
08/04:00am 24.1 26.8 17.8 68 4.0 CALM 0 0 0 0 1008.5 1007.6 0.0
08/03:30am 24.1 25.0 17.6 67 4.1 NW 9 11 5 6 1008.5 1007.6 0.0
08/03:00am 23.6 24.1 18.3 72 3.4 NNW 13 20 7 11 1008.6 1007.7 0.0
08/02:30am 25.4 27.9 17.3 61 5.1 CALM 0 0 0 0 1008.1 1007.2 0.0
08/02:00am 25.0 26.7 18.0 65 4.4 WNW 6 6 3 3 1008.2 1007.3 0.0
08/01:30am 24.9 26.2 17.6 64 4.6 NNW 7 9 4 5 1008.4 1007.5 0.0
08/01:00am 25.4 26.1 17.1 60 5.2 N 9 11 5 6 1008.5 1007.6 0.0
08/12:30am 26.2 28.2 17.0 57 5.7 WSW 2 15 1 8 1009.0 1008.1 0.0
08/12:00am 27.6 27.7 16.6 51 6.9 S 11 13 6 7 1009.2 1008.3 0.0
 
Date/Time
WST
Temp
°C
App
Temp
°C
Dew
Point
Rel
Hum
%
Delta-T
°C
Wind Press
QNH
hPa
Press
MSL
hPa
Rain
since 9 am
mm
Dir
 
Spd
km/h
Gust
km/h
Spd
kts
Gust
kts
07/11:30pm 26.8 27.5 17.0 55 6.1 SSE 9 17 5 9 1009.5 1008.6 0.0
07/11:00pm 26.5 28.4 18.9 63 4.9 N 7 9 4 5 1009.2 1008.3 0.0
07/10:30pm 26.4 28.1 18.5 62 5.1 NNW 7 9 4 5 1009.2 1008.3 0.0
07/10:00pm 27.1 29.8 17.8 56 5.9 CALM 0 0 0 0 1009.1 1008.2 0.0
07/09:30pm 28.0 30.4 16.9 51 7.0 CALM 0 0 0 0 1009.1 1008.2 0.0

Other Formats:

Comma delimited format used in spreadsheet applications
http://www.bom.gov.au/fwo/IDW60801/IDW60801.94206.axf

JavaScript Object Notation format (JSON) in row-major order
http://www.bom.gov.au/fwo/IDW60801/IDW60801.94206.json